Time;durP1;ratioP1;P1;durP2;ratioP2;P2;SDS_P1;SDS_P2;PMS_P1;PMS_P2;Temp;Humidity;BMP_temperature;BMP_pressure;BME280_temperature;BME280_humidity;BME280_pressure;Samples;Min_cycle;Max_cycle;Signal;HPM_P1;HPM_P2
2024/04/26 00:01:30;;;;;;;;;;;;;;;10.54;66.53;100270.84;5483487;25;99616;-66
2024/04/26 00:03:58;;;;;;;;;;;;;;;10.69;65.74;100274.63;5495539;25;95475;-66
2024/04/26 00:06:26;;;;;;;;;;;;;;;10.59;65.86;100281.19;5480553;25;95059;-66
2024/04/26 00:08:54;;;;;;;;;;;;;;;10.61;66.11;100272.28;5490193;25;95509;-66
2024/04/26 00:11:22;;;;;;;;;;;;;;;10.63;66.18;100270.44;5487416;25;99362;-66
2024/04/26 00:13:50;;;;;;;;;;;;;;;10.55;66.43;100269.91;5500392;25;94943;-67
2024/04/26 00:16:18;;;;;;;;;;;;;;;10.54;66.11;100268.19;5489276;25;94938;-67
2024/04/26 00:18:48;;;;;;;;;;;;;;;10.85;65.19;100270.34;5472183;25;99362;-66
2024/04/26 00:21:16;;;;;;;;;;;;;;;10.62;65.81;100263.44;5471041;25;99366;-69
2024/04/26 00:23:44;;;;;;;;;;;;;;;10.56;66.49;100271.66;5470099;25;95173;-67
2024/04/26 00:26:12;;;;;;;;;;;;;;;10.54;66.53;100262.91;5490271;25;94852;-67
2024/04/26 00:28:40;;;;;;;;;;;;;;;10.54;66.48;100268.19;5486927;25;96610;-66
2024/04/26 00:31:08;;;;;;;;;;;;;;;10.81;65.40;100265.28;5466989;25;96001;-66
2024/04/26 00:33:38;;;;;;;;;;;;;;;10.62;66.33;100263.44;5486729;25;94798;-67
2024/04/26 00:36:09;;;;;;;;;;;;;;;10.65;65.59;100260.66;5468633;25;94946;-66
2024/04/26 00:38:37;;;;;;;;;;;;;;;10.50;66.35;100263.94;5496062;25;98816;-66
2024/04/26 00:41:04;;;;;;;;;;;;;;;10.38;66.28;100261.84;5475517;25;97157;-65
2024/04/26 00:43:32;;;;;;;;;;;;;;;10.50;66.32;100271.88;5501475;25;95140;-65
2024/04/26 00:46:00;;;;;;;;;;;;;;;10.59;65.53;100268.84;5470305;25;99324;-66
2024/04/26 00:48:28;;;;;;;;;;;;;;;10.75;65.02;100255.84;5494784;25;99822;-65
2024/04/26 00:50:57;;;;;;;;;;;;;;;10.49;65.94;100258.75;5493738;25;95505;-65
2024/04/26 00:53:27;;;;;;;;;;;;;;;10.78;65.00;100259.19;5477478;25;94801;-66
2024/04/26 00:55:55;;;;;;;;;;;;;;;10.87;64.46;100257.94;5492205;25;95931;-66
2024/04/26 00:58:23;;;;;;;;;;;;;;;10.87;64.51;100252.66;5490899;25;96661;-65
2024/04/26 01:00:51;;;;;;;;;;;;;;;10.91;64.42;100256.00;5499013;25;96213;-65
2024/04/26 01:03:19;;;;;;;;;;;;;;;10.79;64.56;100253.00;5477275;25;95269;-66
2024/04/26 01:05:47;;;;;;;;;;;;;;;10.66;65.25;100251.81;5496457;25;94861;-66
2024/04/26 01:08:13;;;;;;;;;;;;;;;10.67;65.26;100248.25;5478758;25;96725;-65
2024/04/26 01:10:43;;;;;;;;;;;;;;;10.66;65.24;100258.88;5485989;25;96573;-66
2024/04/26 01:13:11;;;;;;;;;;;;;;;10.70;65.31;100258.66;5483398;25;95546;-66
2024/04/26 01:15:39;;;;;;;;;;;;;;;10.63;65.69;100261.66;5485874;25;95140;-65
2024/04/26 01:18:07;;;;;;;;;;;;;;;10.73;65.18;100271.75;5477820;25;96817;-66
2024/04/26 01:20:35;;;;;;;;;;;;;;;10.77;65.12;100273.34;5477303;25;99019;-66
2024/04/26 01:23:03;;;;;;;;;;;;;;;10.82;65.29;100274.94;5473938;25;94734;-67
2024/04/26 01:25:33;;;;;;;;;;;;;;;10.82;64.95;100282.88;5466413;25;95579;-66
2024/04/26 01:28:02;;;;;;;;;;;;;;;10.61;65.55;100274.06;5469560;25;96811;-66
2024/04/26 01:30:29;;;;;;;;;;;;;;;10.57;65.74;100273.34;5473341;25;97378;-66
2024/04/26 01:32:58;;;;;;;;;;;;;;;10.92;64.90;100274.44;5481738;25;95924;-67
2024/04/26 01:35:26;;;;;;;;;;;;;;;10.83;64.87;100279.31;5465260;25;94947;-65
2024/04/26 01:37:54;;;;;;;;;;;;;;;10.77;65.31;100288.31;5474246;25;98963;-66
2024/04/26 01:40:21;;;;;;;;;;;;;;;10.78;64.65;100285.63;5478974;25;97276;-68
2024/04/26 01:42:52;;;;;;;;;;;;;;;10.88;64.62;100286.09;5466178;25;95062;-67
2024/04/26 01:45:20;;;;;;;;;;;;;;;10.89;64.17;100281.66;5475031;25;94975;-67
2024/04/26 01:47:48;;;;;;;;;;;;;;;10.79;65.17;100292.63;5447768;25;95649;-67
2024/04/26 01:50:16;;;;;;;;;;;;;;;10.53;65.49;100290.25;5473010;25;99372;-67
2024/04/26 01:52:43;;;;;;;;;;;;;;;10.61;65.71;100284.66;5475074;25;94866;-66
2024/04/26 01:55:11;;;;;;;;;;;;;;;10.82;65.03;100282.88;5478509;25;95776;-66
2024/04/26 01:57:37;;;;;;;;;;;;;;;10.50;66.21;100277.16;5487505;25;96706;-66
2024/04/26 02:00:09;;;;;;;;;;;;;;;10.66;65.38;100293.22;5482233;25;96878;-66
2024/04/26 02:02:35;;;;;;;;;;;;;;;10.69;65.40;100288.69;5492948;25;94654;-66
2024/04/26 02:05:03;;;;;;;;;;;;;;;10.70;65.54;100286.88;5472876;25;94887;-66
2024/04/26 02:07:28;;;;;;;;;;;;;;;10.69;65.49;100277.25;5503197;25;97157;-67
2024/04/26 02:09:56;;;;;;;;;;;;;;;10.85;65.13;100285.34;5471295;25;97457;-67
2024/04/26 02:12:24;;;;;;;;;;;;;;;10.78;65.03;100282.97;5498506;25;94819;-66
2024/04/26 02:14:49;;;;;;;;;;;;;;;10.87;64.92;100276.44;5474599;25;94731;-66
2024/04/26 02:17:20;;;;;;;;;;;;;;;10.73;65.43;100274.41;5484801;25;96968;-66
2024/04/26 02:19:45;;;;;;;;;;;;;;;10.85;64.91;100283.56;5475952;25;95606;-66
2024/04/26 02:22:13;;;;;;;;;;;;;;;10.93;64.55;100278.81;5495551;25;95185;-67
2024/04/26 02:24:41;;;;;;;;;;;;;;;10.84;64.82;100281.00;5478882;25;94930;-67
2024/04/26 02:27:08;;;;;;;;;;;;;;;10.72;65.38;100275.31;5484980;25;97270;-65
2024/04/26 02:29:36;;;;;;;;;;;;;;;10.69;65.54;100287.81;5485079;25;101240;-66
2024/04/26 02:32:04;;;;;;;;;;;;;;;10.66;65.86;100278.22;5477876;25;94885;-67
2024/04/26 02:34:35;;;;;;;;;;;;;;;10.77;65.53;100281.25;5482898;25;95023;-67
2024/04/26 02:37:03;;;;;;;;;;;;;;;10.90;64.77;100276.28;5468523;25;97136;-66
2024/04/26 02:39:31;;;;;;;;;;;;;;;10.87;64.80;100272.94;5476628;25;96886;-67
2024/04/26 02:41:59;;;;;;;;;;;;;;;10.86;65.09;100271.22;5472078;25;95663;-66
2024/04/26 02:44:26;;;;;;;;;;;;;;;10.98;64.68;100271.53;5475114;25;94955;-66
2024/04/26 02:46:54;;;;;;;;;;;;;;;10.68;65.39;100276.41;5470532;25;96769;-66
2024/04/26 02:49:22;;;;;;;;;;;;;;;10.67;65.83;100277.31;5467702;25;96098;-66
2024/04/26 02:51:53;;;;;;;;;;;;;;;10.78;65.56;100272.41;5461981;25;94674;-67
2024/04/26 02:54:20;;;;;;;;;;;;;;;10.61;65.98;100282.88;5470730;25;94878;-68
2024/04/26 02:56:48;;;;;;;;;;;;;;;10.68;66.04;100275.53;5474992;25;95429;-66
2024/04/26 02:59:16;;;;;;;;;;;;;;;10.52;66.38;100282.38;5474802;25;97034;-67
2024/04/26 03:01:46;;;;;;;;;;;;;;;10.55;66.76;100282.28;5463687;25;94749;-68
2024/04/26 03:04:14;;;;;;;;;;;;;;;10.47;66.88;100281.72;5474519;25;97324;-67
2024/04/26 03:06:43;;;;;;;;;;;;;;;10.43;67.13;100275.72;5472957;25;97171;-66
2024/04/26 03:09:14;;;;;;;;;;;;;;;10.29;67.54;100278.94;5478073;25;96813;-67
2024/04/26 03:11:42;;;;;;;;;;;;;;;10.27;67.82;100280.78;5476145;25;94737;-67
2024/04/26 03:14:10;;;;;;;;;;;;;;;10.27;67.81;100286.06;5480869;25;95267;-67
2024/04/26 03:16:40;;;;;;;;;;;;;;;10.41;67.66;100290.78;5476044;25;96021;-66
2024/04/26 03:19:08;;;;;;;;;;;;;;;10.32;67.79;100288.50;5474392;25;98169;-68
2024/04/26 03:21:36;;;;;;;;;;;;;;;10.22;68.28;100292.47;5480267;25;96418;-67
2024/04/26 03:24:04;;;;;;;;;;;;;;;10.18;68.41;100294.34;5459478;25;95782;-66
2024/04/26 03:26:35;;;;;;;;;;;;;;;10.00;68.78;100290.66;5471469;25;97206;-67
2024/04/26 03:29:03;;;;;;;;;;;;;;;10.09;68.41;100292.06;5470262;25;95892;-66
2024/04/26 03:31:31;;;;;;;;;;;;;;;10.12;68.38;100294.56;5479000;25;94719;-66
2024/04/26 03:33:58;;;;;;;;;;;;;;;10.05;68.95;100297.50;5472768;25;95034;-66
2024/04/26 03:36:26;;;;;;;;;;;;;;;10.00;69.15;100292.44;5475763;25;97067;-66
2024/04/26 03:38:54;;;;;;;;;;;;;;;9.93;68.96;100291.81;5475612;25;96878;-67
2024/04/26 03:41:23;;;;;;;;;;;;;;;10.10;68.74;100292.94;5467540;25;95002;-67
2024/04/26 03:43:53;;;;;;;;;;;;;;;9.98;69.11;100287.22;5474865;25;94768;-68
2024/04/26 03:46:21;;;;;;;;;;;;;;;9.94;69.35;100293.53;5477223;25;96732;-67
2024/04/26 03:48:49;;;;;;;;;;;;;;;9.96;68.85;100299.63;5459418;25;99147;-68
2024/04/26 03:51:17;;;;;;;;;;;;;;;10.08;68.81;100303.56;5480871;25;95906;-66
2024/04/26 03:53:45;;;;;;;;;;;;;;;9.92;69.40;100303.28;5486132;25;95171;-66
2024/04/26 03:56:13;;;;;;;;;;;;;;;9.94;69.01;100296.19;5494562;25;96836;-68
2024/04/26 03:58:42;;;;;;;;;;;;;;;9.90;69.21;100296.38;5487256;25;96801;-68
2024/04/26 04:01:13;;;;;;;;;;;;;;;9.86;69.47;100303.53;5495269;25;94669;-66
2024/04/26 04:03:40;;;;;;;;;;;;;;;9.73;69.95;100304.94;5492012;25;94930;-66
2024/04/26 04:06:08;;;;;;;;;;;;;;;9.65;70.25;100296.44;5489827;25;96815;-66
2024/04/26 04:08:36;;;;;;;;;;;;;;;9.69;70.37;100299.84;5485387;25;96814;-67
2024/04/26 04:11:04;;;;;;;;;;;;;;;9.72;70.57;100297.06;5487626;25;94689;-66
2024/04/26 04:13:32;;;;;;;;;;;;;;;9.90;69.45;100301.66;5485108;25;94875;-67
2024/04/26 04:16:00;;;;;;;;;;;;;;;9.92;69.49;100300.66;5487677;25;97069;-65
2024/04/26 04:18:30;;;;;;;;;;;;;;;10.01;69.14;100296.78;5492564;25;95566;-67
2024/04/26 04:20:58;;;;;;;;;;;;;;;10.12;68.27;100304.28;5475974;25;95111;-67
2024/04/26 04:23:26;;;;;;;;;;;;;;;10.10;68.44;100298.22;5470588;25;94769;-67
2024/04/26 04:25:54;;;;;;;;;;;;;;;10.25;67.97;100301.09;5476163;25;96763;-68
2024/04/26 04:28:22;;;;;;;;;;;;;;;10.08;68.11;100298.28;5465863;25;96878;-68
2024/04/26 04:30:50;;;;;;;;;;;;;;;10.31;67.58;100298.22;5471554;25;94726;-67
2024/04/26 04:33:19;;;;;;;;;;;;;;;10.37;67.21;100297.13;5490395;25;94917;-68
2024/04/26 04:35:51;;;;;;;;;;;;;;;10.39;66.92;100295.25;5482446;25;96863;-68
2024/04/26 04:38:19;;;;;;;;;;;;;;;10.19;67.10;100300.50;5491020;25;99436;-67
2024/04/26 04:40:47;;;;;;;;;;;;;;;10.51;66.19;100292.09;5478560;25;94761;-68
2024/04/26 04:43:15;;;;;;;;;;;;;;;10.52;65.82;100293.81;5486285;25;95135;-67
2024/04/26 04:45:43;;;;;;;;;;;;;;;10.68;65.38;100296.66;5492578;25;97557;-67
2024/04/26 04:48:11;;;;;;;;;;;;;;;10.66;64.99;100294.09;5480409;25;95614;-66
2024/04/26 04:50:39;;;;;;;;;;;;;;;10.46;65.42;100294.06;5477627;25;94986;-67
2024/04/26 04:53:10;;;;;;;;;;;;;;;10.57;65.33;100298.88;5490145;25;95411;-67
2024/04/26 04:55:38;;;;;;;;;;;;;;;10.68;65.01;100299.31;5470670;25;96851;-67
2024/04/26 04:58:06;;;;;;;;;;;;;;;10.95;63.53;100299.91;5486372;25;97022;-67
2024/04/26 05:00:33;;;;;;;;;;;;;;;10.86;63.66;100295.88;5486789;25;94766;-67
2024/04/26 05:03:01;;;;;;;;;;;;;;;10.83;63.81;100295.16;5474498;25;95029;-66
2024/04/26 05:05:29;;;;;;;;;;;;;;;11.04;63.31;100299.47;5481285;25;99324;-68
2024/04/26 05:07:59;;;;;;;;;;;;;;;10.84;63.18;100299.50;5464745;25;96924;-69
2024/04/26 05:10:30;;;;;;;;;;;;;;;10.71;63.55;100309.72;5461808;25;95356;-67
2024/04/26 05:12:58;;;;;;;;;;;;;;;10.51;64.78;100305.28;5466667;25;94827;-67
2024/04/26 05:15:25;;;;;;;;;;;;;;;10.66;64.08;100309.94;5463512;25;100551;-66
2024/04/26 05:17:53;;;;;;;;;;;;;;;10.62;64.20;100308.38;5469098;25;97553;-67
2024/04/26 05:20:21;;;;;;;;;;;;;;;10.37;65.08;100316.44;5475940;25;95275;-68
2024/04/26 05:22:50;;;;;;;;;;;;;;;10.73;63.92;100311.41;5472062;25;95538;-68
2024/04/26 05:25:18;;;;;;;;;;;;;;;10.76;63.38;100318.34;5468735;25;100133;-68
2024/04/26 05:27:49;;;;;;;;;;;;;;;10.99;62.79;100318.19;5460220;25;96890;-67
2024/04/26 05:30:19;;;;;;;;;;;;;;;10.96;63.03;100317.50;5461696;25;94782;-67
2024/04/26 05:32:47;;;;;;;;;;;;;;;11.08;62.21;100322.22;5466952;25;95643;-66
2024/04/26 05:35:16;;;;;;;;;;;;;;;11.32;61.57;100323.78;5470308;25;95450;-66
2024/04/26 05:37:45;;;;;;;;;;;;;;;11.43;60.79;100317.97;5476921;25;97219;-66
2024/04/26 05:40:13;;;;;;;;;;;;;;;11.63;59.94;100323.22;5478892;25;94949;-66
2024/04/26 05:42:41;;;;;;;;;;;;;;;11.45;59.87;100327.56;5464420;25;94677;-65
2024/04/26 05:45:12;;;;;;;;;;;;;;;11.66;59.65;100325.75;5462771;25;97198;-68
2024/04/26 05:47:40;;;;;;;;;;;;;;;11.84;59.26;100324.91;5474933;25;99725;-67
2024/04/26 05:50:08;;;;;;;;;;;;;;;12.06;58.04;100326.53;5462136;25;95342;-66
2024/04/26 05:52:36;;;;;;;;;;;;;;;12.24;57.49;100328.28;5467632;25;95001;-67
2024/04/26 05:55:04;;;;;;;;;;;;;;;12.37;56.74;100324.97;5476215;25;97472;-67
2024/04/26 05:57:32;;;;;;;;;;;;;;;12.66;55.58;100327.97;5473737;25;99950;-67
2024/04/26 05:59:59;;;;;;;;;;;;;;;12.71;55.26;100325.91;5458601;25;99554;-67
2024/04/26 06:02:30;;;;;;;;;;;;;;;12.70;55.33;100321.56;5459646;25;94954;-66
2024/04/26 06:05:01;;;;;;;;;;;;;;;12.95;54.39;100324.66;5474503;25;95467;-66
2024/04/26 06:07:28;;;;;;;;;;;;;;;13.14;53.79;100328.09;5476516;25;99791;-68
2024/04/26 06:09:56;;;;;;;;;;;;;;;13.23;53.21;100332.06;5476476;25;94697;-68
2024/04/26 06:12:24;;;;;;;;;;;;;;;13.32;52.91;100326.28;5469051;25;96514;-68
2024/04/26 06:14:53;;;;;;;;;;;;;;;13.52;51.55;100323.38;5471382;25;95543;-68
2024/04/26 06:17:21;;;;;;;;;;;;;;;13.44;51.65;100330.94;5472849;25;96081;-68
2024/04/26 06:19:51;;;;;;;;;;;;;;;13.35;51.55;100327.91;5470450;25;94891;-67
2024/04/26 06:22:19;;;;;;;;;;;;;;;13.46;51.41;100329.03;5471090;25;95254;-69
2024/04/26 06:24:47;;;;;;;;;;;;;;;13.56;51.63;100334.72;5475810;25;96801;-68
2024/04/26 06:27:15;;;;;;;;;;;;;;;13.72;50.52;100335.56;5465674;25;99920;-67
2024/04/26 06:29:44;;;;;;;;;;;;;;;13.55;50.47;100336.50;5470456;25;94812;-67
2024/04/26 06:32:13;;;;;;;;;;;;;;;13.20;51.74;100341.97;5470483;25;94807;-67
2024/04/26 06:34:41;;;;;;;;;;;;;;;13.63;50.61;100341.41;5468835;25;95746;-67
2024/04/26 06:37:11;;;;;;;;;;;;;;;13.90;49.24;100339.91;5472596;25;98194;-67
2024/04/26 06:39:39;;;;;;;;;;;;;;;14.18;48.48;100333.00;5466643;25;94918;-68
2024/04/26 06:42:08;;;;;;;;;;;;;;;14.44;48.16;100347.53;5465260;25;94893;-68
2024/04/26 06:44:36;;;;;;;;;;;;;;;14.35;47.67;100344.41;5474126;25;97305;-68
2024/04/26 06:47:04;;;;;;;;;;;;;;;14.04;47.88;100340.94;5461840;25;100006;-67
2024/04/26 06:49:32;;;;;;;;;;;;;;;14.04;48.01;100341.78;5472444;25;95812;-67
2024/04/26 06:52:00;;;;;;;;;;;;;;;14.26;47.20;100341.41;5471588;25;94991;-67
2024/04/26 06:54:30;;;;;;;;;;;;;;;14.20;47.35;100347.06;5472733;25;97158;-68
2024/04/26 06:56:58;;;;;;;;;;;;;;;14.42;47.40;100347.59;5462377;25;99422;-66
2024/04/26 06:59:28;;;;;;;;;;;;;;;14.31;46.74;100345.50;5476578;25;95203;-66
2024/04/26 07:01:56;;;;;;;;;;;;;;;14.37;47.20;100341.69;5474688;25;95050;-65
2024/04/26 07:04:24;;;;;;;;;;;;;;;14.53;46.75;100342.53;5470230;25;97186;-67
2024/04/26 07:06:52;;;;;;;;;;;;;;;14.69;46.18;100348.66;5468178;25;97345;-66
2024/04/26 07:09:20;;;;;;;;;;;;;;;14.46;46.43;100343.81;5476908;25;95525;-67
2024/04/26 07:11:50;;;;;;;;;;;;;;;14.65;46.60;100354.22;5474709;25;95011;-67
2024/04/26 07:14:18;;;;;;;;;;;;;;;14.82;45.42;100340.81;5477268;25;97086;-66
2024/04/26 07:16:46;;;;;;;;;;;;;;;15.15;45.72;100346.78;5473808;25;94876;-67
2024/04/26 07:19:16;;;;;;;;;;;;;;;15.14;45.01;100349.53;5471933;25;96941;-67
2024/04/26 07:21:44;;;;;;;;;;;;;;;14.94;44.22;100347.22;5470829;25;94879;-66
2024/04/26 07:24:12;;;;;;;;;;;;;;;15.07;44.61;100349.03;5470549;25;97711;-67
2024/04/26 07:26:40;;;;;;;;;;;;;;;15.43;43.10;100342.41;5471516;25;96814;-67
2024/04/26 07:29:10;;;;;;;;;;;;;;;15.25;42.83;100346.22;5473210;25;94769;-67
2024/04/26 07:31:41;;;;;;;;;;;;;;;15.23;43.18;100354.28;5476836;25;95294;-67
2024/04/26 07:34:09;;;;;;;;;;;;;;;15.28;43.41;100346.03;5473266;25;97367;-68
2024/04/26 07:36:41;;;;;;;;;;;;;;;15.49;42.76;100342.06;5472866;25;96876;-67
2024/04/26 07:39:09;;;;;;;;;;;;;;;15.70;41.74;100348.72;5466419;25;95893;-68
2024/04/26 07:41:36;;;;;;;;;;;;;;;15.65;41.50;100352.63;5467874;25;97249;-67
2024/04/26 07:44:04;;;;;;;;;;;;;;;15.89;41.70;100351.94;5466900;25;100215;-67
2024/04/26 07:46:35;;;;;;;;;;;;;;;16.28;40.89;100347.66;5474998;25;96612;-67
2024/04/26 07:49:03;;;;;;;;;;;;;;;16.52;40.17;100343.38;5475759;25;94802;-67
2024/04/26 07:51:31;;;;;;;;;;;;;;;16.55;39.22;100345.84;5478754;25;95936;-67
2024/04/26 07:53:59;;;;;;;;;;;;;;;16.33;39.32;100341.09;5474948;25;95847;-67
2024/04/26 07:56:27;;;;;;;;;;;;;;;16.52;39.19;100345.19;5473403;25;97047;-67
2024/04/26 07:58:55;;;;;;;;;;;;;;;16.84;38.90;100341.25;5469145;25;95704;-67
2024/04/26 08:01:23;;;;;;;;;;;;;;;16.74;37.90;100350.81;5476649;25;94932;-67
2024/04/26 08:03:53;;;;;;;;;;;;;;;16.64;37.82;100344.41;5475754;25;97197;-68
2024/04/26 08:06:21;;;;;;;;;;;;;;;16.79;38.51;100346.06;5474450;25;99451;-66
2024/04/26 08:08:51;;;;;;;;;;;;;;;16.73;37.09;100335.81;5476372;25;94754;-68
2024/04/26 08:11:20;;;;;;;;;;;;;;;16.50;37.79;100336.44;5468527;25;96507;-68
2024/04/26 08:13:48;;;;;;;;;;;;;;;16.61;37.06;100337.47;5481012;25;97750;-68
2024/04/26 08:16:16;;;;;;;;;;;;;;;16.83;37.01;100333.34;5476045;25;97325;-68
2024/04/26 08:18:44;;;;;;;;;;;;;;;16.73;37.45;100335.81;5473133;25;95229;-68
2024/04/26 08:21:15;;;;;;;;;;;;;;;16.61;36.07;100334.78;5479743;25;97061;-68
2024/04/26 08:23:44;;;;;;;;;;;;;;;16.41;36.55;100337.88;5466665;25;99609;-67
2024/04/26 08:26:18;;;;;;;;;;;;;;;16.45;36.59;100333.22;5482078;25;98895;-67
2024/04/26 08:28:46;;;;;;;;;;;;;;;16.39;36.08;100330.97;5477854;25;96479;-67
2024/04/26 08:31:13;;;;;;;;;;;;;;;16.53;37.00;100325.56;5474530;25;95120;-67
2024/04/26 08:33:41;;;;;;;;;;;;;;;16.87;36.54;100334.88;5464586;25;97169;-71
2024/04/26 08:36:12;;;;;;;;;;;;;;;16.98;35.44;100327.84;5474576;25;96889;-67
2024/04/26 08:38:43;;;;;;;;;;;;;;;16.62;36.16;100336.50;5476365;25;94702;-67
2024/04/26 08:41:11;;;;;;;;;;;;;;;16.93;35.88;100323.78;5476976;25;94797;-68
2024/04/26 08:43:39;;;;;;;;;;;;;;;16.73;36.04;100327.81;5474522;25;99698;-66
2024/04/26 08:46:08;;;;;;;;;;;;;;;17.14;35.43;100335.63;5468673;25;97840;-67
2024/04/26 08:48:38;;;;;;;;;;;;;;;16.99;35.58;100329.56;5477022;25;98339;-67
2024/04/26 08:51:06;;;;;;;;;;;;;;;16.67;36.09;100333.56;5466196;25;95016;-67
2024/04/26 08:53:35;;;;;;;;;;;;;;;16.50;35.94;100325.78;5479322;25;98422;-68
2024/04/26 08:56:09;;;;;;;;;;;;;;;16.79;35.37;100334.53;5475117;25;94836;-68
2024/04/26 08:58:37;;;;;;;;;;;;;;;16.45;35.15;100325.22;5470722;25;98466;-67
2024/04/26 09:01:06;;;;;;;;;;;;;;;16.64;34.90;100344.41;5469337;25;94897;-66
2024/04/26 09:03:34;;;;;;;;;;;;;;;17.00;34.37;100320.56;5471136;25;97595;-68
2024/04/26 09:06:02;;;;;;;;;;;;;;;17.36;33.73;100327.00;5476319;25;99320;-68
2024/04/26 09:08:30;;;;;;;;;;;;;;;17.49;33.40;100334.03;5475788;25;94928;-68
2024/04/26 09:10:58;;;;;;;;;;;;;;;17.53;33.45;100323.97;5479793;25;95437;-67
2024/04/26 09:13:29;;;;;;;;;;;;;;;18.02;33.35;100329.38;5476718;25;97331;-68
2024/04/26 09:15:57;;;;;;;;;;;;;;;17.83;32.48;100332.53;5475920;25;96842;-68
2024/04/26 09:18:25;;;;;;;;;;;;;;;17.66;32.57;100327.50;5464608;25;94791;-67
2024/04/26 09:20:54;;;;;;;;;;;;;;;16.97;33.45;100330.59;5469474;25;95191;-67
2024/04/26 09:23:22;;;;;;;;;;;;;;;17.01;33.64;100335.63;5477574;25;98103;-67
2024/04/26 09:25:50;;;;;;;;;;;;;;;17.06;31.79;100319.31;5466827;25;96163;-67
2024/04/26 09:28:18;;;;;;;;;;;;;;;16.95;33.28;100327.19;5480246;25;94799;-67
2024/04/26 09:30:50;;;;;;;;;;;;;;;17.00;33.43;100325.06;5467576;25;95273;-66
2024/04/26 09:33:20;;;;;;;;;;;;;;;17.36;32.58;100327.84;5473233;25;95232;-67
2024/04/26 09:35:48;;;;;;;;;;;;;;;17.82;31.46;100338.84;5476767;25;96756;-68
2024/04/26 09:38:19;;;;;;;;;;;;;;;17.84;31.11;100333.38;5464952;25;95035;-67
2024/04/26 09:40:49;;;;;;;;;;;;;;;17.48;31.44;100329.66;5471771;25;98971;-67
2024/04/26 09:43:18;;;;;;;;;;;;;;;17.17;32.34;100329.22;5469826;25;95067;-67
2024/04/26 09:45:46;;;;;;;;;;;;;;;17.32;31.69;100325.50;5476680;25;96787;-67
2024/04/26 09:48:17;;;;;;;;;;;;;;;17.03;31.25;100330.19;5478472;25;94614;-67
2024/04/26 09:50:45;;;;;;;;;;;;;;;17.11;30.97;100326.03;5460347;25;95186;-67
2024/04/26 09:53:13;;;;;;;;;;;;;;;15.95;32.29;100324.03;5462655;25;100418;-68
2024/04/26 09:55:41;;;;;;;;;;;;;;;15.64;33.71;100325.13;5470825;25;98957;-67
2024/04/26 09:58:09;;;;;;;;;;;;;;;16.21;33.14;100325.03;5464138;25;95060;-67
2024/04/26 10:00:38;;;;;;;;;;;;;;;16.30;32.35;100317.28;5468591;25;95078;-69
2024/04/26 10:03:06;;;;;;;;;;;;;;;16.57;32.16;100321.75;5474337;25;98649;-66
2024/04/26 10:05:37;;;;;;;;;;;;;;;16.35;31.76;100328.47;5476578;25;98310;-67
2024/04/26 10:08:05;;;;;;;;;;;;;;;16.26;32.26;100330.91;5478272;25;95298;-66
2024/04/26 10:10:32;;;;;;;;;;;;;;;16.59;31.68;100331.34;5475895;25;96372;-67
2024/04/26 10:13:03;;;;;;;;;;;;;;;16.60;31.06;100318.91;5475615;25;97829;-66
2024/04/26 10:15:31;;;;;;;;;;;;;;;16.91;31.27;100318.53;5471098;25;96296;-66
2024/04/26 10:17:59;;;;;;;;;;;;;;;17.25;30.77;100324.22;5476706;25;95299;-66
2024/04/26 10:20:27;;;;;;;;;;;;;;;17.44;30.38;100324.66;5470066;25;94835;-67
2024/04/26 10:23:06;;;;;;;;;;;;;;;17.78;29.50;100326.66;5473751;25;96878;-66
2024/04/26 10:25:34;;;;;;;;;;;;;;;16.86;29.85;100323.34;5471324;25;96876;-66
2024/04/26 10:28:10;;;;;;;;;;;;;;;17.14;29.57;100317.78;5469837;25;94947;-67
2024/04/26 10:30:38;;;;;;;;;;;;;;;17.56;29.03;100322.91;5476137;25;94929;-66
2024/04/26 10:33:06;;;;;;;;;;;;;;;17.31;29.49;100334.47;5475263;25;98436;-67
2024/04/26 10:35:34;;;;;;;;;;;;;;;16.89;30.21;100327.59;5476838;25;97005;-67
2024/04/26 10:38:05;;;;;;;;;;;;;;;16.96;29.18;100327.06;5473281;25;94842;-66
2024/04/26 10:40:33;;;;;;;;;;;;;;;17.01;29.38;100330.28;5474706;25;95405;-67
2024/04/26 10:43:01;;;;;;;;;;;;;;;17.23;29.37;100331.47;5474759;25;97271;-67
2024/04/26 10:45:29;;;;;;;;;;;;;;;16.86;29.56;100328.69;5471339;25;99646;-67
2024/04/26 10:47:57;;;;;;;;;;;;;;;15.88;30.47;100333.41;5476602;25;94994;-67
2024/04/26 10:50:25;;;;;;;;;;;;;;;16.17;30.68;100335.03;5472586;25;94988;-67
2024/04/26 10:52:53;;;;;;;;;;;;;;;16.55;30.25;100326.31;5474588;25;97276;-68
2024/04/26 10:55:24;;;;;;;;;;;;;;;16.47;30.33;100332.19;5472788;25;100431;-67
2024/04/26 10:57:59;;;;;;;;;;;;;;;16.07;31.47;100320.59;5466691;25;95822;-68
2024/04/26 11:00:27;;;;;;;;;;;;;;;16.19;32.02;100317.13;5471127;25;96270;-68
2024/04/26 11:02:55;;;;;;;;;;;;;;;16.50;31.64;100323.09;5474520;25;96873;-69
2024/04/26 11:05:23;;;;;;;;;;;;;;;16.52;31.83;100329.19;5470612;25;100490;-68
2024/04/26 11:07:56;;;;;;;;;;;;;;;17.24;30.80;100317.16;5470799;25;94971;-69
2024/04/26 11:10:31;;;;;;;;;;;;;;;16.91;31.28;100318.53;5466924;25;95409;-68
2024/04/26 11:12:59;;;;;;;;;;;;;;;16.70;31.27;100311.97;5476280;25;96827;-67
2024/04/26 11:15:27;;;;;;;;;;;;;;;16.83;30.95;100312.88;5470038;25;99491;-68
2024/04/26 11:17:55;;;;;;;;;;;;;;;17.61;30.89;100321.66;5464558;25;97354;-68
2024/04/26 11:20:23;;;;;;;;;;;;;;;18.01;30.12;100324.97;5470737;25;94876;-71
2024/04/26 11:22:51;;;;;;;;;;;;;;;17.95;29.80;100319.22;5463913;25;96625;-68
2024/04/26 11:25:19;;;;;;;;;;;;;;;18.43;29.42;100315.63;5467421;25;95923;-67
2024/04/26 11:27:50;;;;;;;;;;;;;;;17.51;31.33;100312.56;5472027;25;94787;-66
2024/04/26 11:30:19;;;;;;;;;;;;;;;17.91;31.17;100313.25;5478112;25;95104;-67
2024/04/26 11:32:47;;;;;;;;;;;;;;;18.00;30.63;100306.38;5473524;25;99545;-68
2024/04/26 11:35:15;;;;;;;;;;;;;;;17.98;30.98;100313.69;5474249;25;95601;-67
2024/04/26 11:37:42;;;;;;;;;;;;;;;17.32;31.44;100301.47;5472594;25;94817;-66
2024/04/26 11:40:11;;;;;;;;;;;;;;;17.47;31.12;100300.38;5480530;25;95165;-67
2024/04/26 11:42:39;;;;;;;;;;;;;;;17.76;31.25;100303.69;5476044;25;95390;-68
2024/04/26 11:45:10;;;;;;;;;;;;;;;18.24;31.12;100309.94;5479220;25;97253;-68
2024/04/26 11:47:38;;;;;;;;;;;;;;;18.02;30.55;100312.47;5477796;25;96118;-67
2024/04/26 11:50:08;;;;;;;;;;;;;;;18.15;29.97;100302.59;5479801;25;94821;-70
2024/04/26 11:52:37;;;;;;;;;;;;;;;18.46;29.84;100301.16;5473917;25;100204;-67
2024/04/26 11:55:05;;;;;;;;;;;;;;;18.91;29.30;100295.00;5472548;25;100050;-68
2024/04/26 11:57:36;;;;;;;;;;;;;;;18.94;28.82;100310.00;5472605;25;95986;-68
2024/04/26 12:00:05;;;;;;;;;;;;;;;18.40;27.80;100320.34;5469541;25;94986;-67
2024/04/26 12:02:35;;;;;;;;;;;;;;;18.17;28.43;100312.22;5479776;25;97304;-67
2024/04/26 12:05:03;;;;;;;;;;;;;;;17.87;29.10;100315.28;5477145;25;96785;-68
2024/04/26 12:07:31;;;;;;;;;;;;;;;17.92;29.69;100315.81;5477212;25;95384;-65
2024/04/26 12:09:59;;;;;;;;;;;;;;;18.00;30.06;100312.56;5471815;25;94774;-66
2024/04/26 12:12:27;;;;;;;;;;;;;;;18.40;29.29;100304.28;5475302;25;94798;-66
2024/04/26 12:14:55;;;;;;;;;;;;;;;18.69;28.88;100303.00;5471120;25;100074;-68
2024/04/26 12:17:23;;;;;;;;;;;;;;;18.93;28.23;100303.78;5473333;25;97322;-66
2024/04/26 12:19:53;;;;;;;;;;;;;;;19.24;28.11;100302.25;5469176;25;95314;-67
2024/04/26 12:22:21;;;;;;;;;;;;;;;18.89;27.12;100314.84;5473613;25;98262;-66
2024/04/26 12:24:49;;;;;;;;;;;;;;;18.80;27.47;100296.81;5469795;25;97829;-64
2024/04/26 12:27:17;;;;;;;;;;;;;;;18.27;28.28;100312.38;5476145;25;94815;-66
2024/04/26 12:29:47;;;;;;;;;;;;;;;18.20;28.80;100313.78;5476571;25;95295;-65
2024/04/26 12:32:14;;;;;;;;;;;;;;;18.53;28.99;100316.63;5463632;25;100200;-66
2024/04/26 12:34:43;;;;;;;;;;;;;;;18.66;28.74;100320.13;5479612;25;97366;-66
2024/04/26 12:37:13;;;;;;;;;;;;;;;18.90;28.71;100317.41;5461593;25;94953;-66
2024/04/26 12:39:44;;;;;;;;;;;;;;;18.94;29.17;100310.00;5476505;25;95745;-66
2024/04/26 12:42:12;;;;;;;;;;;;;;;19.38;28.49;100307.38;5469062;25;100015;-66